sensor_id;sensor_type;location;lat;lon;timestamp;pressure;altitude;pressure_sealevel;temperature;humidity
44926;BME280;30662;51.210;7.656;2024-02-21T00:00:53;150187.03;;;5.52;100.00
44926;BME280;30662;51.210;7.656;2024-02-21T00:03:20;150216.03;;;5.64;100.00
44926;BME280;30662;51.210;7.656;2024-02-21T00:05:47;150208.47;;;5.61;100.00
44926;BME280;30662;51.210;7.656;2024-02-21T00:08:14;150211.00;;;5.62;100.00
44926;BME280;30662;51.210;7.656;2024-02-21T00:10:42;150202.19;;;5.58;100.00
44926;BME280;30662;51.210;7.656;2024-02-21T00:27:03;150233.69;;;5.71;100.00
44926;BME280;30662;51.210;7.656;2024-02-21T00:29:29;150236.19;;;5.72;100.00
44926;BME280;30662;51.210;7.656;2024-02-21T00:42:21;150203.44;;;5.59;100.00
44926;BME280;30662;51.210;7.656;2024-02-21T00:44:48;150200.88;;;5.58;100.00
44926;BME280;30662;51.210;7.656;2024-02-21T00:47:15;150200.88;;;5.58;100.00
44926;BME280;30662;51.210;7.656;2024-02-21T00:49:41;150205.97;;;5.60;100.00
44926;BME280;30662;51.210;7.656;2024-02-21T00:52:08;150207.22;;;5.60;100.00
44926;BME280;30662;51.210;7.656;2024-02-21T00:54:35;150226.13;;;5.68;100.00
44926;BME280;30662;51.210;7.656;2024-02-21T00:57:16;150195.84;;;5.56;100.00
44926;BME280;30662;51.210;7.656;2024-02-21T00:59:44;150198.38;;;5.57;100.00
44926;BME280;30662;51.210;7.656;2024-02-21T01:02:10;150161.78;;;5.42;100.00
44926;BME280;30662;51.210;7.656;2024-02-21T01:04:37;150170.66;;;5.45;100.00
44926;BME280;30662;51.210;7.656;2024-02-21T01:07:04;150169.38;;;5.45;100.00
44926;BME280;30662;51.210;7.656;2024-02-21T01:09:31;150164.31;;;5.43;100.00
44926;BME280;30662;51.210;7.656;2024-02-21T01:11:57;150170.66;;;5.45;100.00
44926;BME280;30662;51.210;7.656;2024-02-21T01:14:25;150168.13;;;5.44;100.00
44926;BME280;30662;51.210;7.656;2024-02-21T01:16:53;150180.72;;;5.49;100.00
44926;BME280;30662;51.210;7.656;2024-02-21T01:19:20;150164.31;;;5.43;100.00
44926;BME280;30662;51.210;7.656;2024-02-21T01:21:47;150175.69;;;5.47;100.00
44926;BME280;30662;51.210;7.656;2024-02-21T01:24:13;150179.44;;;5.49;100.00
44926;BME280;30662;51.210;7.656;2024-02-21T01:26:40;150197.09;;;5.56;100.00
44926;BME280;30662;51.210;7.656;2024-02-21T01:29:07;150180.72;;;5.49;100.00
44926;BME280;30662;51.210;7.656;2024-02-21T01:31:34;150185.78;;;5.51;100.00
44926;BME280;30662;51.210;7.656;2024-02-21T01:34:02;150175.69;;;5.47;100.00
44926;BME280;30662;51.210;7.656;2024-02-21T01:36:28;150204.69;;;5.59;100.00
44926;BME280;30662;51.210;7.656;2024-02-21T01:38:55;150194.59;;;5.55;100.00
44926;BME280;30662;51.210;7.656;2024-02-21T01:41:22;150185.78;;;5.51;100.00
44926;BME280;30662;51.210;7.656;2024-02-21T01:43:48;150193.34;;;5.54;100.00
44926;BME280;30662;51.210;7.656;2024-02-21T01:46:15;150209.72;;;5.61;100.00
44926;BME280;30662;51.210;7.656;2024-02-21T01:48:42;150193.34;;;5.54;100.00
44926;BME280;30662;51.210;7.656;2024-02-21T01:51:10;150199.63;;;5.57;100.00
44926;BME280;30662;51.210;7.656;2024-02-21T01:53:40;150200.88;;;5.58;100.00
44926;BME280;30662;51.210;7.656;2024-02-21T01:56:09;150192.06;;;5.54;100.00
44926;BME280;30662;51.210;7.656;2024-02-21T01:58:37;150193.34;;;5.54;100.00
44926;BME280;30662;51.210;7.656;2024-02-21T02:01:05;150187.03;;;5.52;100.00
44926;BME280;30662;51.210;7.656;2024-02-21T02:03:33;150176.94;;;5.48;100.00
44926;BME280;30662;51.210;7.656;2024-02-21T02:06:00;150209.72;;;5.61;100.00
44926;BME280;30662;51.210;7.656;2024-02-21T02:08:28;150187.03;;;5.52;100.00
44926;BME280;30662;51.210;7.656;2024-02-21T02:10:54;150183.28;;;5.50;100.00
44926;BME280;30662;51.210;7.656;2024-02-21T02:13:21;150205.97;;;5.60;100.00
44926;BME280;30662;51.210;7.656;2024-02-21T02:15:49;150213.50;;;5.63;100.00
44926;BME280;30662;51.210;7.656;2024-02-21T02:18:17;150178.19;;;5.48;100.00
44926;BME280;30662;51.210;7.656;2024-02-21T02:20:44;150174.41;;;5.47;100.00
44926;BME280;30662;51.210;7.656;2024-02-21T02:23:17;150147.97;;;5.36;100.00
44926;BME280;30662;51.210;7.656;2024-02-21T02:25:45;150137.84;;;5.32;100.00
44926;BME280;30662;51.210;7.656;2024-02-21T02:28:12;150141.63;;;5.34;100.00
44926;BME280;30662;51.210;7.656;2024-02-21T02:30:39;150142.88;;;5.34;100.00
44926;BME280;30662;51.210;7.656;2024-02-21T02:33:06;150144.13;;;5.35;100.00
44926;BME280;30662;51.210;7.656;2024-02-21T02:35:33;150173.16;;;5.46;100.00
44926;BME280;30662;51.210;7.656;2024-02-21T02:38:00;150187.03;;;5.52;100.00
44926;BME280;30662;51.210;7.656;2024-02-21T02:40:28;150156.75;;;5.40;100.00
44926;BME280;30662;51.210;7.656;2024-02-21T02:42:59;150184.53;;;5.51;100.00
44926;BME280;30662;51.210;7.656;2024-02-21T02:45:26;150179.44;;;5.49;100.00
44926;BME280;30662;51.210;7.656;2024-02-21T02:47:53;150168.13;;;5.44;100.00
44926;BME280;30662;51.210;7.656;2024-02-21T02:50:20;150207.22;;;5.60;100.00
44926;BME280;30662;51.210;7.656;2024-02-21T02:52:47;150218.53;;;5.65;100.00
44926;BME280;30662;51.210;7.656;2024-02-21T02:55:14;150195.84;;;5.56;100.00
44926;BME280;30662;51.210;7.656;2024-02-21T02:57:42;150208.47;;;5.61;100.00
44926;BME280;30662;51.210;7.656;2024-02-21T03:00:11;150231.16;;;5.70;100.00
44926;BME280;30662;51.210;7.656;2024-02-21T03:02:38;150241.28;;;5.74;100.00
44926;BME280;30662;51.210;7.656;2024-02-21T03:05:12;150207.22;;;5.60;100.00
44926;BME280;30662;51.210;7.656;2024-02-21T03:07:39;150198.38;;;5.57;100.00
44926;BME280;30662;51.210;7.656;2024-02-21T03:10:06;150199.63;;;5.57;100.00
44926;BME280;30662;51.210;7.656;2024-02-21T03:12:33;150197.09;;;5.56;100.00
44926;BME280;30662;51.210;7.656;2024-02-21T03:15:01;150202.19;;;5.58;100.00
44926;BME280;30662;51.210;7.656;2024-02-21T03:17:31;150190.81;;;5.53;100.00
44926;BME280;30662;51.210;7.656;2024-02-21T03:19:58;150211.00;;;5.62;100.00
44926;BME280;30662;51.210;7.656;2024-02-21T03:22:25;150222.34;;;5.66;100.00
44926;BME280;30662;51.210;7.656;2024-02-21T03:24:53;150234.94;;;5.71;100.00
44926;BME280;30662;51.210;7.656;2024-02-21T03:27:20;150248.81;;;5.77;100.00
44926;BME280;30662;51.210;7.656;2024-02-21T03:29:46;150252.59;;;5.78;100.00
44926;BME280;30662;51.210;7.656;2024-02-21T03:32:14;150232.41;;;5.70;100.00
44926;BME280;30662;51.210;7.656;2024-02-21T03:34:41;150229.91;;;5.69;100.00
44926;BME280;30662;51.210;7.656;2024-02-21T03:37:08;150212.25;;;5.62;100.00
44926;BME280;30662;51.210;7.656;2024-02-21T03:39:34;150248.81;;;5.77;100.00
44926;BME280;30662;51.210;7.656;2024-02-21T03:42:01;150219.84;;;5.65;100.00
44926;BME280;30662;51.210;7.656;2024-02-21T03:44:28;150180.72;;;5.49;100.00
44926;BME280;30662;51.210;7.656;2024-02-21T03:46:55;150198.38;;;5.57;100.00
44926;BME280;30662;51.210;7.656;2024-02-21T03:49:23;150183.28;;;5.50;100.00
44926;BME280;30662;51.210;7.656;2024-02-21T03:51:50;150184.53;;;5.51;100.00
44926;BME280;30662;51.210;7.656;2024-02-21T03:54:16;150129.00;;;5.29;100.00
44926;BME280;30662;51.210;7.656;2024-02-21T03:56:43;150136.59;;;5.32;100.00
44926;BME280;30662;51.210;7.656;2024-02-21T03:59:09;150125.22;;;5.27;100.00
44926;BME280;30662;51.210;7.656;2024-02-21T04:01:36;150144.13;;;5.35;100.00
44926;BME280;30662;51.210;7.656;2024-02-21T04:04:03;150153.00;;;5.38;100.00
44926;BME280;30662;51.210;7.656;2024-02-21T04:06:32;150156.75;;;5.40;100.00
44926;BME280;30662;51.210;7.656;2024-02-21T04:08:58;150175.69;;;5.47;100.00
44926;BME280;30662;51.210;7.656;2024-02-21T04:11:25;150197.09;;;5.56;100.00
44926;BME280;30662;51.210;7.656;2024-02-21T04:13:51;150197.09;;;5.56;100.00
44926;BME280;30662;51.210;7.656;2024-02-21T04:16:18;150203.44;;;5.59;100.00
44926;BME280;30662;51.210;7.656;2024-02-21T04:18:45;150209.72;;;5.61;100.00
44926;BME280;30662;51.210;7.656;2024-02-21T04:21:14;150193.34;;;5.54;100.00
44926;BME280;30662;51.210;7.656;2024-02-21T04:23:43;150181.97;;;5.50;100.00
44926;BME280;30662;51.210;7.656;2024-02-21T04:26:10;150184.53;;;5.51;100.00
44926;BME280;30662;51.210;7.656;2024-02-21T04:28:37;150185.78;;;5.51;100.00
44926;BME280;30662;51.210;7.656;2024-02-21T04:31:04;150173.16;;;5.46;100.00
44926;BME280;30662;51.210;7.656;2024-02-21T04:33:31;150205.97;;;5.60;100.00
44926;BME280;30662;51.210;7.656;2024-02-21T04:35:57;150197.09;;;5.56;100.00
44926;BME280;30662;51.210;7.656;2024-02-21T04:38:24;150175.69;;;5.47;100.00
44926;BME280;30662;51.210;7.656;2024-02-21T04:40:52;150203.44;;;5.59;100.00
44926;BME280;30662;51.210;7.656;2024-02-21T04:43:19;150200.88;;;5.58;100.00
44926;BME280;30662;51.210;7.656;2024-02-21T04:45:45;150153.00;;;5.38;100.00
44926;BME280;30662;51.210;7.656;2024-02-21T04:48:12;150188.31;;;5.52;100.00
44926;BME280;30662;51.210;7.656;2024-02-21T04:50:39;150168.13;;;5.44;100.00
44926;BME280;30662;51.210;7.656;2024-02-21T04:53:05;150200.88;;;5.58;100.00
44926;BME280;30662;51.210;7.656;2024-02-21T04:55:32;150180.72;;;5.49;100.00
44926;BME280;30662;51.210;7.656;2024-02-21T04:58:00;150192.06;;;5.54;100.00
44926;BME280;30662;51.210;7.656;2024-02-21T05:00:27;150193.34;;;5.54;100.00
44926;BME280;30662;51.210;7.656;2024-02-21T05:02:54;150202.19;;;5.58;100.00
44926;BME280;30662;51.210;7.656;2024-02-21T05:05:21;150197.09;;;5.56;100.00
44926;BME280;30662;51.210;7.656;2024-02-21T05:07:48;150188.31;;;5.52;100.00
44926;BME280;30662;51.210;7.656;2024-02-21T05:10:14;150184.53;;;5.51;100.00
44926;BME280;30662;51.210;7.656;2024-02-21T05:12:41;150192.06;;;5.54;100.00
44926;BME280;30662;51.210;7.656;2024-02-21T05:15:09;150213.50;;;5.63;100.00
44926;BME280;30662;51.210;7.656;2024-02-21T05:17:36;150197.09;;;5.56;100.00
44926;BME280;30662;51.210;7.656;2024-02-21T05:20:03;150179.44;;;5.49;100.00
44926;BME280;30662;51.210;7.656;2024-02-21T05:22:30;150175.69;;;5.47;100.00
44926;BME280;30662;51.210;7.656;2024-02-21T05:24:57;150183.28;;;5.50;100.00
44926;BME280;30662;51.210;7.656;2024-02-21T05:27:24;150187.03;;;5.52;100.00
44926;BME280;30662;51.210;7.656;2024-02-21T05:29:50;150174.41;;;5.47;100.00
44926;BME280;30662;51.210;7.656;2024-02-21T05:32:18;150180.72;;;5.49;100.00
44926;BME280;30662;51.210;7.656;2024-02-21T05:34:48;150216.03;;;5.64;100.00
44926;BME280;30662;51.210;7.656;2024-02-21T05:37:15;150184.53;;;5.51;100.00
44926;BME280;30662;51.210;7.656;2024-02-21T05:39:41;150170.66;;;5.45;100.00
44926;BME280;30662;51.210;7.656;2024-02-21T05:42:08;150199.63;;;5.57;100.00
44926;BME280;30662;51.210;7.656;2024-02-21T05:44:35;150188.31;;;5.52;100.00
44926;BME280;30662;51.210;7.656;2024-02-21T05:47:02;150195.84;;;5.56;100.00
44926;BME280;30662;51.210;7.656;2024-02-21T05:49:30;150217.28;;;5.64;100.00
44926;BME280;30662;51.210;7.656;2024-02-21T05:51:56;150202.19;;;5.58;100.00
44926;BME280;30662;51.210;7.656;2024-02-21T05:54:23;150187.03;;;5.52;100.00
44926;BME280;30662;51.210;7.656;2024-02-21T05:56:50;150204.69;;;5.59;100.00
44926;BME280;30662;51.210;7.656;2024-02-21T05:59:16;150232.41;;;5.70;100.00
44926;BME280;30662;51.210;7.656;2024-02-21T06:01:43;150233.69;;;5.71;100.00
44926;BME280;30662;51.210;7.656;2024-02-21T06:04:10;150184.53;;;5.51;100.00
44926;BME280;30662;51.210;7.656;2024-02-21T06:06:38;150205.97;;;5.60;100.00
44926;BME280;30662;51.210;7.656;2024-02-21T06:09:05;150213.50;;;5.63;100.00
44926;BME280;30662;51.210;7.656;2024-02-21T06:11:31;150222.34;;;5.66;100.00
44926;BME280;30662;51.210;7.656;2024-02-21T06:13:58;150184.53;;;5.51;100.00
44926;BME280;30662;51.210;7.656;2024-02-21T06:16:25;150205.97;;;5.60;100.00
44926;BME280;30662;51.210;7.656;2024-02-21T06:18:52;150204.69;;;5.59;100.00
44926;BME280;30662;51.210;7.656;2024-02-21T06:21:18;150207.22;;;5.60;100.00
44926;BME280;30662;51.210;7.656;2024-02-21T06:23:46;150194.59;;;5.55;100.00
44926;BME280;30662;51.210;7.656;2024-02-21T06:26:13;150198.38;;;5.57;100.00
44926;BME280;30662;51.210;7.656;2024-02-21T06:28:40;150190.81;;;5.53;100.00
44926;BME280;30662;51.210;7.656;2024-02-21T06:31:07;150200.88;;;5.58;100.00
44926;BME280;30662;51.210;7.656;2024-02-21T06:33:33;150189.56;;;5.53;100.00
44926;BME280;30662;51.210;7.656;2024-02-21T06:36:00;150198.38;;;5.57;100.00
44926;BME280;30662;51.210;7.656;2024-02-21T06:38:27;150185.78;;;5.51;100.00
44926;BME280;30662;51.210;7.656;2024-02-21T06:40:55;150197.09;;;5.56;100.00
44926;BME280;30662;51.210;7.656;2024-02-21T06:43:22;150222.34;;;5.66;100.00
44926;BME280;30662;51.210;7.656;2024-02-21T06:45:49;150183.28;;;5.50;100.00
44926;BME280;30662;51.210;7.656;2024-02-21T06:48:17;150209.72;;;5.61;100.00
44926;BME280;30662;51.210;7.656;2024-02-21T06:50:43;150160.53;;;5.41;100.00
44926;BME280;30662;51.210;7.656;2024-02-21T06:53:10;150171.91;;;5.46;100.00
44926;BME280;30662;51.210;7.656;2024-02-21T06:55:37;150181.97;;;5.50;100.00
44926;BME280;30662;51.210;7.656;2024-02-21T06:58:05;150132.81;;;5.30;100.00
44926;BME280;30662;51.210;7.656;2024-02-21T07:00:32;150145.41;;;5.35;100.00
44926;BME280;30662;51.210;7.656;2024-02-21T07:02:59;150146.66;;;5.36;100.00
44926;BME280;30662;51.210;7.656;2024-02-21T07:05:25;150154.25;;;5.39;100.00
44926;BME280;30662;51.210;7.656;2024-02-21T07:07:52;150187.03;;;5.52;100.00
44926;BME280;30662;51.210;7.656;2024-02-21T07:10:19;150205.97;;;5.60;100.00
44926;BME280;30662;51.210;7.656;2024-02-21T07:12:46;150168.13;;;5.44;100.00
44926;BME280;30662;51.210;7.656;2024-02-21T07:15:14;150161.78;;;5.42;100.00
44926;BME280;30662;51.210;7.656;2024-02-21T07:17:41;150176.94;;;5.48;100.00
44926;BME280;30662;51.210;7.656;2024-02-21T07:20:08;150175.69;;;5.47;100.00
44926;BME280;30662;51.210;7.656;2024-02-21T07:22:35;150166.88;;;5.44;100.00
44926;BME280;30662;51.210;7.656;2024-02-21T07:25:02;150142.88;;;5.34;100.00
44926;BME280;30662;51.210;7.656;2024-02-21T07:27:32;150169.38;;;5.45;100.00
44926;BME280;30662;51.210;7.656;2024-02-21T07:29:59;150166.88;;;5.44;100.00
44926;BME280;30662;51.210;7.656;2024-02-21T07:32:27;150178.19;;;5.48;100.00
44926;BME280;30662;51.210;7.656;2024-02-21T07:34:54;150164.31;;;5.43;100.00
44926;BME280;30662;51.210;7.656;2024-02-21T07:37:21;150131.56;;;5.30;100.00
44926;BME280;30662;51.210;7.656;2024-02-21T07:39:47;150174.41;;;5.47;100.00
44926;BME280;30662;51.210;7.656;2024-02-21T07:42:14;150198.38;;;5.57;100.00
44926;BME280;30662;51.210;7.656;2024-02-21T07:44:41;150183.28;;;5.50;100.00
44926;BME280;30662;51.210;7.656;2024-02-21T07:47:07;150226.13;;;5.68;100.00
44926;BME280;30662;51.210;7.656;2024-02-21T07:52:09;150212.25;;;5.62;100.00
44926;BME280;30662;51.210;7.656;2024-02-21T07:54:36;150209.72;;;5.61;100.00
44926;BME280;30662;51.210;7.656;2024-02-21T07:57:03;150193.34;;;5.54;100.00
44926;BME280;30662;51.210;7.656;2024-02-21T07:59:34;150170.66;;;5.45;100.00
44926;BME280;30662;51.210;7.656;2024-02-21T08:02:01;150158.03;;;5.40;100.00
44926;BME280;30662;51.210;7.656;2024-02-21T08:04:27;150181.97;;;5.50;100.00
44926;BME280;30662;51.210;7.656;2024-02-21T08:06:56;150195.84;;;5.56;100.00
44926;BME280;30662;51.210;7.656;2024-02-21T08:09:23;150159.28;;;5.41;100.00
44926;BME280;30662;51.210;7.656;2024-02-21T08:11:49;150163.06;;;5.42;100.00
44926;BME280;30662;51.210;7.656;2024-02-21T08:14:17;150136.59;;;5.32;100.00
44926;BME280;30662;51.210;7.656;2024-02-21T08:16:46;150125.22;;;5.27;100.00
44926;BME280;30662;51.210;7.656;2024-02-21T08:19:13;150139.09;;;5.33;100.00
44926;BME280;30662;51.210;7.656;2024-02-21T08:21:40;150145.41;;;5.35;100.00
44926;BME280;30662;51.210;7.656;2024-02-21T08:24:08;150161.78;;;5.42;100.00
44926;BME280;30662;51.210;7.656;2024-02-21T08:26:39;150150.47;;;5.37;100.00
44926;BME280;30662;51.210;7.656;2024-02-21T08:29:06;150170.66;;;5.45;100.00
44926;BME280;30662;51.210;7.656;2024-02-21T08:31:33;150153.00;;;5.38;100.00
44926;BME280;30662;51.210;7.656;2024-02-21T08:34:00;150202.19;;;5.58;100.00
44926;BME280;30662;51.210;7.656;2024-02-21T08:36:27;150258.94;;;5.81;100.00
44926;BME280;30662;51.210;7.656;2024-02-21T08:38:54;150227.41;;;5.68;100.00
44926;BME280;30662;51.210;7.656;2024-02-21T08:41:22;150185.78;;;5.51;100.00
44926;BME280;30662;51.210;7.656;2024-02-21T08:43:56;150194.59;;;5.55;100.00
44926;BME280;30662;51.210;7.656;2024-02-21T08:46:22;150192.06;;;5.54;100.00
44926;BME280;30662;51.210;7.656;2024-02-21T08:48:49;150183.28;;;5.50;100.00
44926;BME280;30662;51.210;7.656;2024-02-21T08:51:17;150194.59;;;5.55;100.00
44926;BME280;30662;51.210;7.656;2024-02-21T08:53:44;150180.72;;;5.49;100.00
44926;BME280;30662;51.210;7.656;2024-02-21T08:56:11;150185.78;;;5.51;100.00
44926;BME280;30662;51.210;7.656;2024-02-21T08:58:40;150197.09;;;5.56;100.00
44926;BME280;30662;51.210;7.656;2024-02-21T09:01:07;150204.69;;;5.59;100.00
44926;BME280;30662;51.210;7.656;2024-02-21T09:03:34;150222.34;;;5.66;100.00
44926;BME280;30662;51.210;7.656;2024-02-21T09:06:01;150236.19;;;5.72;100.00
44926;BME280;30662;51.210;7.656;2024-02-21T09:08:28;150164.31;;;5.43;100.00
44926;BME280;30662;51.210;7.656;2024-02-21T09:10:54;150180.72;;;5.49;100.00
44926;BME280;30662;51.210;7.656;2024-02-21T09:13:21;150237.50;;;5.72;100.00
44926;BME280;30662;51.210;7.656;2024-02-21T09:15:49;150237.50;;;5.72;100.00
44926;BME280;30662;51.210;7.656;2024-02-21T09:18:16;150234.94;;;5.71;100.00
44926;BME280;30662;51.210;7.656;2024-02-21T09:20:43;150213.50;;;5.63;100.00
44926;BME280;30662;51.210;7.656;2024-02-21T09:23:10;150226.13;;;5.68;100.00
44926;BME280;30662;51.210;7.656;2024-02-21T09:25:37;150245.06;;;5.75;100.00
44926;BME280;30662;51.210;7.656;2024-02-21T09:28:04;150203.44;;;5.59;100.00
44926;BME280;30662;51.210;7.656;2024-02-21T09:30:31;150219.84;;;5.65;100.00
44926;BME280;30662;51.210;7.656;2024-02-21T09:32:59;150198.38;;;5.57;100.00
44926;BME280;30662;51.210;7.656;2024-02-21T09:35:26;150219.84;;;5.65;100.00
44926;BME280;30662;51.210;7.656;2024-02-21T09:37:53;150197.09;;;5.56;100.00
44926;BME280;30662;51.210;7.656;2024-02-21T09:40:20;150224.88;;;5.67;100.00
44926;BME280;30662;51.210;7.656;2024-02-21T09:42:48;150150.47;;;5.37;100.00
44926;BME280;30662;51.210;7.656;2024-02-21T09:45:19;150173.16;;;5.46;100.00
44926;BME280;30662;51.210;7.656;2024-02-21T09:47:53;150173.16;;;5.46;100.00
44926;BME280;30662;51.210;7.656;2024-02-21T09:50:24;150165.63;;;5.43;100.00
44926;BME280;30662;51.210;7.656;2024-02-21T09:52:54;150204.69;;;5.59;100.00
44926;BME280;30662;51.210;7.656;2024-02-21T09:55:21;150111.41;;;5.21;100.00
44926;BME280;30662;51.210;7.656;2024-02-21T09:57:49;150130.31;;;5.29;100.00
44926;BME280;30662;51.210;7.656;2024-02-21T10:00:18;150151.72;;;5.38;100.00
44926;BME280;30662;51.210;7.656;2024-02-21T10:02:44;150117.69;;;5.24;100.00
44926;BME280;30662;51.210;7.656;2024-02-21T10:05:11;150153.00;;;5.38;100.00
44926;BME280;30662;51.210;7.656;2024-02-21T10:07:40;150164.31;;;5.43;100.00
44926;BME280;30662;51.210;7.656;2024-02-21T10:10:08;150178.19;;;5.48;100.00
44926;BME280;30662;51.210;7.656;2024-02-21T10:12:34;150224.88;;;5.67;100.00
44926;BME280;30662;51.210;7.656;2024-02-21T10:15:02;150209.72;;;5.61;100.00
44926;BME280;30662;51.210;7.656;2024-02-21T10:17:29;150253.84;;;5.79;100.00
44926;BME280;30662;51.210;7.656;2024-02-21T10:20:06;150262.72;;;5.82;100.00
44926;BME280;30662;51.210;7.656;2024-02-21T10:22:33;150286.72;;;5.92;100.00
44926;BME280;30662;51.210;7.656;2024-02-21T10:25:08;150229.91;;;5.69;100.00
44926;BME280;30662;51.210;7.656;2024-02-21T10:27:35;150277.84;;;5.89;100.00
44926;BME280;30662;51.210;7.656;2024-02-21T10:30:03;150263.97;;;5.83;100.00
44926;BME280;30662;51.210;7.656;2024-02-21T10:32:31;150281.63;;;5.90;100.00
44926;BME280;30662;51.210;7.656;2024-02-21T10:35:02;150276.59;;;5.88;100.00
44926;BME280;30662;51.210;7.656;2024-02-21T10:37:31;150329.63;;;6.10;100.00
44926;BME280;30662;51.210;7.656;2024-02-21T10:39:58;150359.88;;;6.22;100.00
44926;BME280;30662;51.210;7.656;2024-02-21T10:42:29;150386.41;;;6.32;100.00
44926;BME280;30662;51.210;7.656;2024-02-21T10:45:00;150498.72;;;6.78;100.00
44926;BME280;30662;51.210;7.656;2024-02-21T10:47:32;150669.22;;;7.46;100.00
44926;BME280;30662;51.210;7.656;2024-02-21T10:50:03;150665.38;;;7.45;100.00
44926;BME280;30662;51.210;7.656;2024-02-21T10:52:39;150843.53;;;8.17;100.00
44926;BME280;30662;51.210;7.656;2024-02-21T10:55:10;150880.19;;;8.32;100.00
44926;BME280;30662;51.210;7.656;2024-02-21T10:57:42;150942.19;;;8.56;100.00
44926;BME280;30662;51.210;7.656;2024-02-21T11:00:10;150947.22;;;8.59;100.00
44926;BME280;30662;51.210;7.656;2024-02-21T11:02:38;150953.53;;;8.61;100.00
44926;BME280;30662;51.210;7.656;2024-02-21T11:05:06;150886.53;;;8.34;100.00
44926;BME280;30662;51.210;7.656;2024-02-21T11:07:35;150741.22;;;7.76;100.00
44926;BME280;30662;51.210;7.656;2024-02-21T11:10:03;150743.75;;;7.77;100.00
44926;BME280;30662;51.210;7.656;2024-02-21T11:12:32;150718.44;;;7.66;100.00
44926;BME280;30662;51.210;7.656;2024-02-21T11:15:07;150598.50;;;7.18;100.00
44926;BME280;30662;51.210;7.656;2024-02-21T11:17:35;150568.19;;;7.06;100.00
44926;BME280;30662;51.210;7.656;2024-02-21T11:20:15;150516.41;;;6.85;100.00
44926;BME280;30662;51.210;7.656;2024-02-21T11:22:43;150590.88;;;7.15;100.00
44926;BME280;30662;51.210;7.656;2024-02-21T11:25:10;150681.81;;;7.52;100.00
44926;BME280;30662;51.210;7.656;2024-02-21T11:27:37;150699.50;;;7.59;100.00
44926;BME280;30662;51.210;7.656;2024-02-21T11:30:05;150622.47;;;7.28;100.00
44926;BME280;30662;51.210;7.656;2024-02-21T11:32:33;150590.88;;;7.15;100.00
44926;BME280;30662;51.210;7.656;2024-02-21T11:35:01;150564.41;;;7.04;100.00
44926;BME280;30662;51.210;7.656;2024-02-21T11:37:35;150549.25;;;6.98;100.00
44926;BME280;30662;51.210;7.656;2024-02-21T11:40:05;150535.34;;;6.93;100.00
44926;BME280;30662;51.210;7.656;2024-02-21T11:42:32;150568.19;;;7.06;100.00
44926;BME280;30662;51.210;7.656;2024-02-21T11:44:59;150669.22;;;7.46;100.00
44926;BME280;30662;51.210;7.656;2024-02-21T11:47:31;150656.56;;;7.41;100.00
44926;BME280;30662;51.210;7.656;2024-02-21T11:49:59;150746.25;;;7.78;100.00
44926;BME280;30662;51.210;7.656;2024-02-21T11:52:26;150795.53;;;7.97;100.00
44926;BME280;30662;51.210;7.656;2024-02-21T11:54:53;150825.84;;;8.10;100.00
44926;BME280;30662;51.210;7.656;2024-02-21T11:57:20;151001.59;;;8.80;100.00
44926;BME280;30662;51.210;7.656;2024-02-21T11:59:47;151039.50;;;8.96;100.00
44926;BME280;30662;51.210;7.656;2024-02-21T12:02:14;150987.66;;;8.75;100.00
44926;BME280;30662;51.210;7.656;2024-02-21T12:04:42;150924.50;;;8.49;100.00
44926;BME280;30662;51.210;7.656;2024-02-21T12:07:10;150780.38;;;7.91;100.00
44926;BME280;30662;51.210;7.656;2024-02-21T12:09:37;150720.97;;;7.67;100.00
44926;BME280;30662;51.210;7.656;2024-02-21T12:12:05;150738.66;;;7.74;100.00
44926;BME280;30662;51.210;7.656;2024-02-21T12:14:33;150768.97;;;7.87;100.00
44926;BME280;30662;51.210;7.656;2024-02-21T12:17:01;150659.09;;;7.42;100.00
44926;BME280;30662;51.210;7.656;2024-02-21T12:19:29;150636.38;;;7.33;100.00
44926;BME280;30662;51.210;7.656;2024-02-21T12:21:58;150597.22;;;7.17;100.00
44926;BME280;30662;51.210;7.656;2024-02-21T12:24:27;150563.13;;;7.04;100.00
44926;BME280;30662;51.210;7.656;2024-02-21T12:26:55;150575.72;;;7.09;100.00
44926;BME280;30662;51.210;7.656;2024-02-21T12:29:23;150611.09;;;7.23;100.00
44926;BME280;30662;51.210;7.656;2024-02-21T12:31:50;150550.50;;;6.99;100.00
44926;BME280;30662;51.210;7.656;2024-02-21T12:34:17;150516.41;;;6.85;100.00
44926;BME280;30662;51.210;7.656;2024-02-21T12:37:01;150541.63;;;6.95;100.00
44926;BME280;30662;51.210;7.656;2024-02-21T12:39:29;150510.09;;;6.82;100.00
44926;BME280;30662;51.210;7.656;2024-02-21T12:41:56;150503.75;;;6.80;100.00
44926;BME280;30662;51.210;7.656;2024-02-21T12:44:23;150474.75;;;6.68;100.00
44926;BME280;30662;51.210;7.656;2024-02-21T12:46:49;150478.53;;;6.70;100.00
44926;BME280;30662;51.210;7.656;2024-02-21T12:49:18;150498.72;;;6.78;100.00
44926;BME280;30662;51.210;7.656;2024-02-21T12:51:45;150474.75;;;6.68;100.00
44926;BME280;30662;51.210;7.656;2024-02-21T12:54:12;150517.66;;;6.85;100.00
44926;BME280;30662;51.210;7.656;2024-02-21T12:56:40;150501.25;;;6.79;100.00
44926;BME280;30662;51.210;7.656;2024-02-21T12:59:07;150527.78;;;6.89;100.00
44926;BME280;30662;51.210;7.656;2024-02-21T13:01:34;150527.78;;;6.89;100.00
44926;BME280;30662;51.210;7.656;2024-02-21T13:04:01;150536.59;;;6.93;100.00
44926;BME280;30662;51.210;7.656;2024-02-21T13:06:28;150626.25;;;7.29;100.00
44926;BME280;30662;51.210;7.656;2024-02-21T13:08:58;150693.19;;;7.56;100.00
44926;BME280;30662;51.210;7.656;2024-02-21T13:11:24;150743.75;;;7.77;100.00
44926;BME280;30662;51.210;7.656;2024-02-21T13:13:53;150709.63;;;7.63;100.00
44926;BME280;30662;51.210;7.656;2024-02-21T13:16:20;150686.91;;;7.54;100.00
44926;BME280;30662;51.210;7.656;2024-02-21T13:18:46;150737.38;;;7.74;100.00